• Join FlightAware (Why Join?)
  • Login
  • US Flag 
07:30AM EDT


 

Airport Tracker/Info


-or-


 

Live Flight TrackerFlight Track Log ✈ CCA188 ✈ 21-Feb-2014 ✈ RCSS / TSA - ZBTJ / TSN

Flight Track Log - Related Links

Times and Time Zones

All times are in EST time to prevent confusion due to time zone crossing. See the CCA188 flight status page for this flight to view local times or setup timezone preferences in your user account.

Time Position Orientation Groundspeed Altitude Reporting Facility
EST Latitude Longitude Course Direction KTS MPH feet Rate Location/Type
06:58AM 25.4435 121.4550 347° North  Level Estimated
06:59AM 25.5370 121.4307 347° North  Level Estimated
07:00AM 25.6305 121.4064 347° North  Level Estimated
07:01AM 25.7240 121.3821 347° North  Level Estimated
07:02AM 25.8175 121.3577 347° North  Level Estimated
07:03AM 25.9110 121.3333 347° North  Level Estimated
07:04AM 26.0044 121.3088 347° North  Level Estimated
07:05AM 26.0979 121.2843 347° North  Level Estimated
07:06AM 26.1914 121.2598 347° North  Level Estimated
07:07AM 26.2849 121.2352 347° North  Level Estimated
07:08AM 26.3783 121.2106 347° North  Level Estimated
07:09AM 26.4718 121.1859 347° North  Level Estimated
07:10AM 26.5653 121.1612 347° North  Level Estimated
07:11AM 26.6587 121.1365 347° North  Level Estimated
07:12AM 26.7521 121.1117 347° North  Level Estimated
07:13AM 26.8456 121.0869 347° North  Level Estimated
07:14AM 26.9390 121.0620 347° North  Level Estimated
07:15AM 27.0325 121.0371 347° North  Level Estimated
07:16AM 27.1259 121.0122 347° North  Level Estimated
07:17AM 27.2193 120.9872 347° North  Level Estimated
07:18AM 27.3127 120.9622 347° North  Level Estimated
07:19AM 27.4062 120.9371 347° North  Level Estimated
07:20AM 27.4996 120.9120 347° North  Level Estimated
07:21AM 27.5930 120.8868 347° North  Level Estimated
07:22AM 27.6864 120.8617 347° North  Level Estimated
07:23AM 27.7798 120.8364 347° North  Level Estimated
07:24AM 27.8732 120.8111 347° North  Level Estimated
07:25AM 27.9666 120.7858 347° North  Level Estimated
07:26AM 28.0600 120.7605 347° North  Level Estimated
07:27AM 28.1533 120.7350 347° North  Level Estimated
07:28AM 28.2467 120.7096 346° North  Level Estimated
07:29AM 28.3401 120.6841 346° North  Level Estimated
07:30AM 28.4335 120.6585 346° North  Level Estimated
07:31AM 28.5268 120.6329 346° North  Level Estimated
07:32AM 28.6202 120.6073 346° North  Level Estimated
07:33AM 28.7135 120.5816 346° North  Level Estimated
07:34AM 28.8069 120.5559 346° North  Level Estimated
07:35AM 28.9002 120.5301 346° North  Level Estimated
07:36AM 28.9936 120.5043 346° North  Level Estimated
07:37AM 29.0869 120.4784 346° North  Level Estimated
07:38AM 29.1802 120.4525 346° North  Level Estimated
07:39AM 29.2735 120.4266 346° North  Level Estimated
07:40AM 29.3669 120.4006 346° North  Level Estimated
07:41AM 29.4602 120.3745 346° North  Level Estimated
07:42AM 29.5535 120.3484 346° North  Level Estimated
07:43AM 29.6468 120.3222 346° North  Level Estimated
07:44AM 29.7401 120.2960 346° North  Level Estimated
07:45AM 29.8334 120.2698 346° North  Level Estimated
07:46AM 29.9267 120.2435 346° North  Level Estimated
07:47AM 30.0199 120.2171 346° North  Level Estimated
07:48AM 30.1132 120.1907 346° North  Level Estimated
07:49AM 30.2065 120.1643 346° North  Level Estimated
07:50AM 30.2998 120.1378 346° North  Level Estimated
07:51AM 30.3930 120.1112 346° North  Level Estimated
07:52AM 30.4863 120.0846 346° North  Level Estimated
07:53AM 30.5795 120.0580 346° North  Level Estimated
07:54AM 30.6728 120.0313 346° North  Level Estimated
07:55AM 30.7660 120.0045 346° North  Level Estimated
07:56AM 30.8592 119.9777 346° North  Level Estimated
07:57AM 30.9525 119.9509 346° North  Level Estimated
07:58AM 31.0457 119.9240 346° North  Level Estimated
07:59AM 31.1389 119.8970 346° North  Level Estimated
08:00AM 31.2321 119.8700 346° North  Level Estimated
08:01AM 31.3253 119.8429 346° North  Level Estimated
08:02AM 31.4185 119.8158 346° North  Level Estimated
08:03AM 31.5117 119.7886 346° North  Level Estimated
08:04AM 31.6049 119.7614 346° North  Level Estimated
08:05AM 31.6981 119.7341 346° North  Level Estimated
08:06AM 31.7913 119.7067 346° North  Level Estimated
08:07AM 31.8844 119.6794 346° North  Level Estimated
08:08AM 31.9776 119.6519 346° North  Level Estimated
08:09AM 32.0708 119.6244 346° North  Level Estimated
08:10AM 32.1639 119.5968 346° North  Level Estimated
08:11AM 32.2571 119.5692 346° North  Level Estimated
08:12AM 32.3502 119.5415 346° North  Level Estimated
08:13AM 32.4433 119.5138 346° North  Level Estimated
08:14AM 32.5365 119.4860 346° North  Level Estimated
08:15AM 32.6296 119.4582 346° North  Level Estimated
08:16AM 32.7227 119.4303 346° North  Level Estimated
08:17AM 32.8158 119.4023 346° North  Level Estimated
08:18AM 32.9089 119.3743 346° North  Level Estimated
08:19AM 33.0020 119.3462 346° North  Level Estimated
08:20AM 33.0951 119.3180 346° North  Level Estimated
08:21AM 33.1882 119.2898 346° North  Level Estimated
08:22AM 33.2813 119.2616 346° North  Level Estimated
08:23AM 33.3743 119.2333 346° North  Level Estimated
08:24AM 33.4674 119.2049 346° North  Level Estimated
08:25AM 33.5605 119.1765 346° North  Level Estimated
08:26AM 33.6535 119.1479 346° North  Level Estimated
08:27AM 33.7466 119.1194 346° North  Level Estimated
08:28AM 33.8396 119.0908 346° North  Level Estimated
08:29AM 33.9326 119.0621 346° North  Level Estimated
08:30AM 34.0257 119.0333 346° North  Level Estimated
08:31AM 34.1187 119.0045 346° North  Level Estimated
08:32AM 34.2117 118.9756 346° North  Level Estimated
08:33AM 34.3047 118.9467 346° North  Level Estimated
08:34AM 34.3977 118.9177 346° North  Level Estimated
08:35AM 34.4907 118.8886 346° North  Level Estimated
08:36AM 34.5837 118.8595 346° North  Level Estimated
08:37AM 34.6767 118.8303 346° North  Level Estimated
08:38AM 34.7696 118.8010 346° North  Level Estimated
08:39AM 34.8626 118.7717 345° North  Level Estimated
08:40AM 34.9556 118.7422 345° North  Level Estimated
08:41AM 35.0485 118.7128 345° North  Level Estimated
08:42AM 35.1414 118.6833 345° North  Level Estimated
08:43AM 35.2344 118.6536 345° North  Level Estimated
08:44AM 35.3273 118.6240 345° North  Level Estimated
08:45AM 35.4202 118.5942 345° North  Level Estimated
08:46AM 35.5131 118.5644 345° North  Level Estimated
08:47AM 35.6061 118.5346 345° North  Level Estimated
08:48AM 35.6990 118.5046 345° North  Level Estimated
08:49AM 35.7919 118.4746 345° North  Level Estimated
08:50AM 35.8847 118.4445 345° North  Level Estimated
08:51AM 35.9776 118.4143 345° North  Level Estimated
08:52AM 36.0705 118.3841 345° North  Level Estimated
08:53AM 36.1633 118.3538 345° North  Level Estimated
08:54AM 36.2562 118.3234 345° North  Level Estimated
08:55AM 36.3490 118.2930 345° North  Level Estimated
08:56AM 36.4419 118.2625 345° North  Level Estimated
08:57AM 36.5347 118.2319 345° North  Level Estimated
08:58AM 36.6275 118.2012 345° North  Level Estimated
08:59AM 36.7203 118.1705 345° North  Level Estimated
09:00AM 36.8132 118.1397 345° North  Level Estimated
09:01AM 36.9060 118.1088 345° North  Level Estimated
09:02AM 36.9987 118.0778 345° North  Level Estimated
09:03AM 37.0915 118.0468 345° North  Level Estimated
09:04AM 37.1843 118.0157 345° North  Level Estimated
09:05AM 37.2771 117.9845 345° North  Level Estimated
09:06AM 37.3698 117.9532 345° North  Level Estimated
09:07AM 37.4626 117.9219 345° North  Level Estimated
09:08AM 37.5553 117.8905 345° North  Level Estimated
09:09AM 37.6481 117.8590 345° North  Level Estimated
09:10AM 37.7408 117.8274 345° North  Level Estimated
09:11AM 37.8335 117.7957 345° North  Level Estimated
09:12AM 37.9262 117.7640 345° North  Level Estimated
09:13AM 38.0189 117.7322 345° North  Level Estimated
09:14AM 38.1116 117.7003 345° North  Level Estimated
09:15AM 38.2043 117.6683 345° North  Level Estimated
09:16AM 38.2970 117.6362 345° North  Level Estimated
09:17AM 38.3896 117.6041 345° North  Level Estimated
09:18AM 38.4823 117.5719 345° North  Level Estimated
09:19AM 38.5749 117.5396 345° North  Level Estimated
09:20AM 38.6676 117.5072 345° North  Level Estimated
09:21AM 38.7602 117.4747 345° North  Level Estimated
09:22AM 38.8528 117.4421 345° North  Level Estimated
09:23AM 38.9454 117.4095 345° North  Level Estimated
09:24AM 39.0380 117.3768 345° North  Level Estimated
09:25AM 39.1244 117.3462 345° North  Level Estimated
09:26AM 39.1244 117.3462 14° North  Level Estimated
09:27AM 39.1244 117.3462 14° North  Level Estimated
09:28AM 39.1244 117.3462 14° North  Level Estimated
09:29AM 39.1244 117.3462 14° North  Level Estimated
09:30AM 39.1244 117.3462 14° North  Level Estimated
09:31AM 39.1244 117.3462 14° North  Level Estimated
09:32AM 39.1244 117.3462 14° North  Level Estimated
09:33AM 39.1244 117.3462 14° North  Level Estimated
09:34AM 39.1244 117.3462 14° North  Level Estimated
09:35AM 39.1244 117.3462 14° North  Level Estimated
09:36AM 39.1244 117.3462 14° North  Level Estimated
09:37AM 39.1244 117.3462 14° North  Level Estimated
09:38AM 39.1244 117.3462 14° North  Level Estimated
09:39AM 39.1244 117.3462 14° North  Level Estimated
09:40AM 39.1244 117.3462 14° North  Level Estimated
09:41AM 39.1244 117.3462 14° North  Level Estimated